Tropical Cyclones
[Index]
Main Index Home Page Stock Weather Photos Extreme Storms Discussion Storm News and Storm Chasing Reports Tropical Cyclones / Hurricanes / Typhoons Weather Data and Links Wild Fires / Bushfires Weather Observation Techniques Weather Picture Catalogue Tornado Pictures and Reports Stock Video Footage and DVDs for sale
Season 1977-1978 Tropical Cyclone VERN Track Map
Season 1977-1978 Summaries: [BoM-AU] [JTWC-AU] [JTWC-SIO] [JTWC-SPAC] [JTWC-SH]
<<- Previous TC | JTWC 1977-1978 Season | Next TC ->>

click for intensity scale information  Lat/long Grid: Show Hide

 Date Labels: Show Hide

Joint Typhoon Warning Centre Cyclone Data

Name: VERN
Number: 972 / 7816

27 Jan 1978 12:00 UTC to 03 Feb 1978 00:00 UTC

    date/time    lat    long     hPa   cat  kts
1978-01-27 12   16.0   113.2                  35          
1978-01-27 18   15.6   112.3                  35          
1978-01-28 00   15.6   111.4                  35          
1978-01-28 06   16.1   110.5            1     40          
1978-01-28 12   16.4   109.7            1     50          
1978-01-28 18   16.3   110.9            2     55          
1978-01-29 00   16.1   112.7            2     60          
1978-01-29 06   16.0   113.3            2     60          
1978-01-29 12   15.8   114.0            2     65          
1978-01-29 18   15.7   114.6            2     65          
1978-01-30 00   15.7   115.3            2     70          
1978-01-30 06   15.9   116.3            2     70          
1978-01-30 12   16.2   117.6            3     75          
1978-01-30 18   16.6   118.8            3     80          
1978-01-31 00   17.0   120.0            3     85          
1978-01-31 06   17.5   120.8            3     85          
1978-01-31 12   18.0   121.2            3     85          
1978-01-31 18   18.4   121.4            3     85          
1978-02-01 00   18.8   121.4            3     85          
1978-02-01 06   19.3   121.2            3     75          
1978-02-01 12   19.9   120.9            2     65          
1978-02-01 18   20.4   120.6            2     55          
1978-02-02 00   20.9   120.3            1     45          
1978-02-02 06   21.6   120.2            1     40          
1978-02-02 12   22.4   120.2            1     40          
1978-02-02 18   23.0   120.5            1     40          
1978-02-03 00   23.6   121.0                  35          
Winds are 1-min average.

Tropical cyclone tracks developed by Michael Bath using data from the Joint Typhoon Warning Centre Best Tracks and Google Maps.


[Australian Severe Weather index] [Copyright Notice] [Email Contacts] [Search This Site] [Privacy Policy]
Document: tropical_cyclone_vern.htm Updated: 18 September 2016